Weather reports worldwide

Advertisment
Zinnwald-Georgenfeld, Germany (10582): temperature & dewpoint: 16.02.2020 08:00:00 - 22.02.2020 08:00:00 (CET)Zinnwald-Georgenfeld, Germany (10582): temperature 5cm & temperature -5cm: 16.02.2020 08:00:00 - 22.02.2020 08:00:00 (CET)Zinnwald-Georgenfeld, Germany (10582): temperature -20cm & temperature -100cm: 16.02.2020 08:00:00 - 22.02.2020 08:00:00 (CET)Zinnwald-Georgenfeld, Germany (10582): wind speed & gusts: 16.02.2020 08:00:00 - 22.02.2020 08:00:00 (CET)Zinnwald-Georgenfeld, Germany (10582): wind direction: 16.02.2020 08:00:00 - 22.02.2020 08:00:00 (CET)Zinnwald-Georgenfeld, Germany (10582): visibility: 16.02.2020 08:00:00 - 22.02.2020 08:00:00 (CET)Zinnwald-Georgenfeld, Germany (10582): sunshine duration: 16.02.2020 08:00:00 - 22.02.2020 08:00:00 (CET)Zinnwald-Georgenfeld, Germany (10582): precipitation: 16.02.2020 08:00:00 - 22.02.2020 08:00:00 (CET)
Date & Time tt [°C] td [°C] tt 5cm [°C] tt -5cm [°C] tt -20cm [°C] tt -100cm [°C] ff [km/h] ff [kn] fx [km/h] fx [kn] dd vv [km] sd [min] rr [mm]
22.02.2020 08:00:00 0,8 -6,3 -3,3 0,0 0,8 2,7 26 14 40 22 SW 75 0 0,0
22.02.2020 07:00:00 -0,3 -4,7 -3,0 0,0 0,8 2,7 27 14 37 20 SSW 63 0 0,0
22.02.2020 06:00:00 -1,2 -3,6 -3,4 0,1 0,8 2,7 27 14 38 21 SSW 55 0 0,0
22.02.2020 05:00:00 -0,6 -3,6 -2,7 0,1 0,8 2,7 29 15 38 20 SW 57 0 0,0
22.02.2020 04:00:00 -0,8 -2,8 -1,9 0,1 0,8 2,7 19 11 34 18 SSW 42 0 0,0
22.02.2020 03:00:00 -0,3 -2,4 -1,1 0,1 0,8 2,7 20 11 29 16 SSW 48 0 0,0
22.02.2020 02:00:00 -0,3 -2,6 -1,1 0,1 0,8 2,7 14 8 35 19 WSW 49 0 0,0
22.02.2020 01:00:00 -0,3 -2,8 -1,2 0,1 0,8 2,7 19 11 40 22 W 50 0 0,0
22.02.2020 00:00:00 -0,5 -3,1 -1,3 0,1 0,8 2,7 25 14 47 25 W 50 0 0,0
21.02.2020 23:00:00 -0,6 -3,3 -1,6 0,1 0,8 2,7 23 12 37 20 W 52 0 0,0
21.02.2020 22:00:00 -0,8 -3,3 -1,8 0,1 0,8 2,7 19 10 36 19 W 53 0 0,0
21.02.2020 21:00:00 -1,2 -3,6 -2,5 0,1 0,8 2,7 23 12 38 20 W 54 0 0,0
21.02.2020 20:00:00 -1,4 -4,0 -4,0 0,1 0,8 2,7 18 10 31 17 W 63 0 0,0
21.02.2020 19:00:00 -1,3 -4,1 -4,3 0,1 0,8 2,7 16 9 31 17 WSW 59 0 0,0
21.02.2020 18:00:00 -1,0 -3,5 -4,3 0,1 0,8 2,7 13 7 27 15 WSW 53 0 0,0
21.02.2020 17:00:00 -0,5 -3,3 -2,1 0,2 0,8 2,7 12 6 31 17 W 59 0 0,0
21.02.2020 16:00:00 -0,2 -2,8 0,0 0,2 0,8 2,7 13 7 34 19 WNW 44 1 0,0
21.02.2020 15:00:00 -0,3 -2,9 0,2 0,2 0,8 2,7 18 10 33 18 WNW 39 1 0,0
21.02.2020 14:00:00 -0,6 -2,2 0,3 0,2 0,8 2,7 19 11 48 26 WNW 16 9 0,0
21.02.2020 13:00:00 -0,4 -2,8 0,2 0,2 0,8 2,7 30 16 49 27 WNW 43 17 0,0
21.02.2020 12:00:00 -1,0 -2,5 0,0 0,2 0,8 2,7 17 9 49 27 WNW 32 4 0,0
21.02.2020 11:00:00 -1,7 -3,0 -0,8 0,2 0,8 2,7 22 12 54 29 W 38 0 0,0
21.02.2020 10:00:00 -1,9 -3,0 -0,8 0,2 0,8 2,7 24 13 56 31 WNW 18 0 0,0
21.02.2020 09:00:00 -2,1 -3,0 -1,0 0,1 0,8 2,7 29 16 61 33 WNW 14 0 0,0
21.02.2020 08:00:00 -2,1 -2,8 -1,3 0,1 0,8 2,7 27 15 59 32 NW 23 0 0,0
21.02.2020 07:00:00 -1,6 -2,4 -1,0 0,1 0,8 2,7 31 17 66 36 WNW 26 0 0,1
21.02.2020 06:00:00 -1,7 -2,4 -0,5 0,1 0,8 2,7 37 20 79 43 NNW 0,7 0 1,5
21.02.2020 05:00:00 -0,2 -0,6 0,0 0,1 0,8 2,7 36 19 63 34 WNW 0,7 0 1,3
21.02.2020 04:00:00 0,4 0,0 0,0 0,1 0,8 2,7 29 16 62 34 WNW 1,3 0 0,8
21.02.2020 03:00:00 1,1 0,5 0,5 0,1 0,8 2,7 31 17 56 30 WSW 7 0 1,1
21.02.2020 02:00:00 0,4 0,0 0,0 0,1 0,8 2,7 29 15 41 22 SSW 2,5 0 0,4
21.02.2020 01:00:00 0,4 0,2 0,2 0,1 0,8 2,7 26 14 53 29 S 0,1 0 0,0
21.02.2020 00:00:00 0,6 0,2 0,3 0,1 0,8 2,7 36 19 50 27 SSW 8 0 0,0
20.02.2020 23:00:00 0,3 0,1 0,2 0,1 0,8 2,7 34 18 45 24 SSW 0,1 0 0,0
20.02.2020 22:00:00 0,3 0,1 0,2 0,1 0,8 2,7 32 17 43 23 SSW 1,1 0 0,0
20.02.2020 21:00:00 0,3 0,0 0,1 0,1 0,8 2,7 31 17 44 24 SSW 0,2 0 0,0
20.02.2020 20:00:00 0,3 0,0 0,1 0,1 0,8 2,7 27 15 40 22 SSW 0,1 0 0,0
20.02.2020 19:00:00 0,3 0,0 0,0 0,1 0,8 2,7 30 16 44 24 SSW 0,6 0 0,0
20.02.2020 18:00:00 0,3 0,0 0,0 0,1 0,8 2,7 32 17 42 23 SSW 1,3 0 0,0
20.02.2020 17:00:00 0,2 0,0 0,1 0,1 0,8 2,7 27 15 39 21 SSW 0,1 0 0,0
20.02.2020 16:00:00 0,1 -0,1 0,1 0,1 0,8 2,7 21 11 29 16 S 0,1 0 0,1
20.02.2020 15:00:00 -0,1 -0,4 0,2 0,1 0,8 2,7 20 11 28 15 S 0,1 0 0,1
20.02.2020 14:00:00 0,0 -0,4 0,6 0,1 0,8 2,7 19 11 29 16 SSW 2,8 0 0,1
20.02.2020 13:00:00 -0,6 -1,2 0,6 0,1 0,8 2,7 22 12 27 15 S 2,5 0 0,0
20.02.2020 12:00:00 -0,4 -1,6 0,3 0,1 0,8 2,7 20 11 28 15 SSW 18 4 0,0
20.02.2020 11:00:00 0,2 -0,9 0,1 0,0 0,8 2,7 19 10 27 15 SW 60 0 0,0
20.02.2020 10:00:00 -1,3 -2,3 0,0 0,0 0,8 2,7 17 9 25 14 SSW 33 0 0,0
20.02.2020 09:00:00 -2,5 -3,6 -1,6 0,0 0,8 2,7 18 10 25 13 SSW 34 0 0,0
20.02.2020 08:00:00 -4,1 -4,9 -5,5 0,0 0,8 2,7 15 8 20 11 S 26 0 0,0
20.02.2020 07:00:00 -5,2 -6,5 -10,7 0,0 0,8 2,7 10 6 20 11 SW 39 0 0,0
20.02.2020 06:00:00 -4,8 -6,2 -9,3 0,0 0,8 2,7 14 8 19 10 SSW 47 0 0,0
20.02.2020 05:00:00 -3,5 -5,6 -6,2 0,1 0,8 2,7 13 7 26 14 SSW 44 0 0,0
20.02.2020 04:00:00 -2,7 -5,0 -4,8 0,1 0,8 2,7 14 8 30 16 W 42 0 0,0
20.02.2020 03:00:00 -2,3 -4,6 -3,1 0,1 0,8 2,7 16 9 32 18 W 43 0 0,0
20.02.2020 02:00:00 -2,0 -4,0 -2,7 0,1 0,8 2,7 16 9 38 20 W 42 0 0,0
20.02.2020 01:00:00 -2,1 -4,0 -4,0 0,1 0,8 2,7 17 9 48 26 WNW 37 0 0,0
20.02.2020 00:00:00 -1,9 -4,0 -3,0 0,1 0,8 2,7 26 14 48 26 WNW 35 0 0,0
19.02.2020 23:00:00 -1,6 -3,7 -2,5 0,1 0,8 2,7 28 15 51 28 WNW 39 0 0,0
19.02.2020 22:00:00 -1,3 -3,2 -1,4 0,1 0,8 2,7 25 14 53 29 WNW 25 0 0,0
19.02.2020 21:00:00 -1,2 -2,9 -0,8 0,1 0,8 2,7 26 14 47 25 WNW 22 0 0,0
19.02.2020 20:00:00 -1,2 -2,7 -0,8 0,1 0,8 2,7 23 12 49 26 W 36 0 0,1
19.02.2020 19:00:00 -1,3 -2,7 -0,8 0,1 0,8 2,7 22 12 41 22 WNW 27 0 0,0
19.02.2020 18:00:00 -1,4 -2,8 -0,3 0,1 0,8 2,7 23 12 53 29 WNW 39 0 0,0
19.02.2020 17:00:00 -1,4 -2,1 0,0 0,1 0,8 2,7 29 16 61 33 WNW 15 0 0,3
19.02.2020 16:00:00 -0,9 -1,7 0,0 0,1 0,8 2,7 26 14 59 32 WNW 17 0 0,1
19.02.2020 15:00:00 -1,3 -1,9 0,0 0,1 0,8 2,7 27 15 49 26 WNW 1,2 0 0,1
19.02.2020 14:00:00 -1,1 -1,9 0,0 0,1 0,8 2,7 29 16 47 25 NW 2,9 0 2,3
19.02.2020 13:00:00 -0,1 -0,7 0,0 0,1 0,8 2,7 27 15 52 28 WNW 4,3 0 0,5
19.02.2020 12:00:00 0,2 -0,3 0,1 0,1 0,8 2,7 25 14 39 21 WSW 3,9 0 0,6
19.02.2020 11:00:00 -0,1 -0,7 -0,1 0,1 0,8 2,7 28 15 46 25 SSW 1,1 0 0,7
19.02.2020 10:00:00 -0,6 -1,0 -0,6 0,1 0,8 2,7 30 16 50 27 SSW 1,8 0 0,1
19.02.2020 09:00:00 -0,4 -1,5 -0,4 0,1 0,8 2,7 35 19 50 27 SSW 20 0 0,0
19.02.2020 08:00:00 -0,8 -2,1 -1,4 0,1 0,8 2,7 30 16 45 24 SSW 35 0 0,0
19.02.2020 07:00:00 -0,5 -2,3 -1,5 0,1 0,8 2,7 30 16 44 24 SSW 46 0 0,0
19.02.2020 06:00:00 -0,5 -2,4 -1,0 0,1 0,8 2,7 23 12 38 20 SSW 48 0 0,0
19.02.2020 05:00:00 -0,2 -2,8 -1,0 0,1 0,8 2,7 29 16 39 21 SSW 50 0 0,0
19.02.2020 04:00:00 -0,3 -2,8 -1,1 0,1 0,8 2,7 22 12 41 22 SSW 57 0 0,0
19.02.2020 03:00:00 -0,1 -3,0 -1,0 0,1 0,8 2,7 27 14 41 22 SW 59 0 0,0
19.02.2020 02:00:00 -0,1 -2,9 -1,0 0,1 0,8 2,7 24 13 49 26 WSW 59 0 0,0
19.02.2020 01:00:00 -0,4 -3,0 -1,6 0,1 0,8 2,7 27 15 49 26 WSW 54 0 0,0
19.02.2020 00:00:00 -0,3 -3,0 -1,7 0,1 0,8 2,7 25 14 52 28 WSW 58 0 0,0
18.02.2020 23:00:00 0,0 -3,1 -1,1 0,1 0,8 2,7 27 15 48 26 W 67 0 0,0
18.02.2020 22:00:00 0,1 -3,5 -1,1 0,1 0,8 2,7 25 13 39 21 WSW 63 0 0,0
18.02.2020 21:00:00 0,2 -3,6 -0,3 0,1 0,8 2,7 23 13 43 23 WSW 69 0 0,0
18.02.2020 20:00:00 -0,1 -3,9 -1,3 0,1 0,8 2,7 25 13 44 24 WSW 70 0 0,0
18.02.2020 19:00:00 0,0 -3,6 -1,5 0,1 0,8 2,7 26 14 42 23 WSW 75 0 0,0
18.02.2020 18:00:00 0,1 -2,9 -1,0 0,1 0,8 2,7 26 14 50 27 WSW 70 0 0,0
18.02.2020 17:00:00 0,1 -1,7 -0,4 0,1 0,8 2,7 21 11 51 27 WSW 71 12 0,3
18.02.2020 16:00:00 0,9 -1,2 0,6 0,1 0,8 2,7 24 13 54 29 WSW 66 19 0,0
18.02.2020 15:00:00 3,3 -3,3 4,8 0,1 0,8 2,7 17 9 51 28 W 60 19 0,0
18.02.2020 14:00:00 1,5 -1,6 1,4 0,1 0,8 2,7 29 15 49 27 W 75 6 0,1
18.02.2020 13:00:00 2,2 -1,8 2,2 0,1 0,8 2,7 24 13 57 31 W 75 23 0,0
18.02.2020 12:00:00 2,4 -1,8 2,8 0,1 0,8 2,7 33 18 55 30 WSW 36 20 0,2
18.02.2020 11:00:00 1,9 -2,2 1,7 0,1 0,8 2,7 29 16 61 33 W 68 22 0,0
18.02.2020 10:00:00 2,4 -2,1 2,8 0,1 0,8 2,7 34 18 61 33 W 75 59 0,0
18.02.2020 09:00:00 1,6 -1,3 1,2 0,1 0,8 2,7 33 18 60 33 W 68 9 0,0
18.02.2020 08:00:00 1,4 -1,0 0,7 0,1 0,8 2,8 31 17 55 30 W 75 0 0,0
18.02.2020 07:00:00 1,7 -1,1 1,1 0,1 0,8 2,8 32 18 62 34 W 75 0 0,0
18.02.2020 06:00:00 1,7 -0,5 1,0 0,1 0,8 2,8 28 15 53 29 W 72 0 0,1
18.02.2020 05:00:00 2,2 -0,7 1,8 0,1 0,8 2,8 30 16 54 29 W 75 0 0,0
18.02.2020 04:00:00 2,1 -1,1 1,0 0,1 0,8 2,8 29 15 51 28 WSW 72 0 0,0
18.02.2020 03:00:00 1,7 -1,1 0,9 0,1 0,8 2,8 29 16 55 30 W 68 0 0,0
18.02.2020 02:00:00 1,5 -0,9 0,4 0,1 0,8 2,8 30 16 52 28 WSW 73 0 0,0
18.02.2020 01:00:00 1,9 -1,5 1,1 0,1 0,8 2,8 23 13 53 29 W 75 0 0,0
18.02.2020 00:00:00 2,6 -0,5 1,7 0,1 0,8 2,8 28 15 44 24 WSW 73 0 0,0
17.02.2020 23:00:00 2,7 0,0 1,5 0,1 0,8 2,8 24 13 46 25 WSW 75 0 0,0
17.02.2020 22:00:00 2,8 0,2 1,7 0,1 0,8 2,8 28 15 48 26 WSW 75 0 0,0
17.02.2020 21:00:00 2,7 0,7 1,6 0,1 0,8 2,8 25 14 44 24 WSW 75 0 0,0
17.02.2020 20:00:00 2,7 1,0 1,5 0,1 0,8 2,8 26 14 36 20 SW 75 0 0,0
17.02.2020 19:00:00 2,5 1,1 1,5 0,1 0,8 2,8 24 13 45 25 SW 75 0 0,0
17.02.2020 18:00:00 2,5 1,7 1,7 0,1 0,8 2,8 21 12 39 21 SW 11 0 0,2
17.02.2020 17:00:00 3,4 0,5 2,6 0,1 0,8 2,8 23 12 41 22 SSW 67 0 0,0
17.02.2020 16:00:00 4,1 0,0 3,3 0,1 0,8 2,8 29 15 37 20 SSW 75 0 0,0
17.02.2020 15:00:00 4,2 -0,6 3,6 0,1 0,8 2,8 28 15 44 24 SSW 75 0 0,0
17.02.2020 14:00:00 4,1 -2,7 3,2 0,1 0,8 2,8 21 11 35 19 SSW 63 0 0,0
17.02.2020 13:00:00 4,8 -1,9 3,7 0,1 0,8 2,8 14 7 23 12 SSW 75 0 0,0
17.02.2020 12:00:00 4,8 -1,8 3,7 0,1 0,8 2,8 14 7 30 16 SW 75 0 0,0
17.02.2020 11:00:00 4,9 -2,3 3,9 0,1 0,8 2,8 20 11 35 19 W 75 0 0,0
17.02.2020 10:00:00 4,9 1,1 3,6 0,1 0,8 2,8 19 11 44 24 WSW 75 0 0,0
17.02.2020 09:00:00 4,8 -0,5 3,0 0,1 0,8 2,8 26 14 51 28 W 75 0 0,0
17.02.2020 08:00:00 4,9 2,2 3,0 0,1 0,8 2,8 24 13 61 33 W 75 0 0,0
17.02.2020 07:00:00 5,8 2,7 3,5 0,1 0,8 2,8 35 19 62 33 WSW 75 0 0,1
17.02.2020 06:00:00 5,0 4,3 3,3 0,1 0,8 2,8 33 18 59 32 W 20 0 0,2
17.02.2020 05:00:00 5,2 3,8 3,3 0,1 0,8 2,8 14 8 40 22 NW 18 0 0,0
17.02.2020 04:00:00 8,9 2,9 5,7 0,1 0,9 2,8 19 11 45 24 WSW 75 0 0,0
17.02.2020 03:00:00 7,2 -0,2 4,2 0,1 0,9 2,8 33 18 56 30 SSW 75 0 0,0
17.02.2020 02:00:00 7,8 -1,1 4,0 0,1 0,9 2,8 42 23 68 37 SSW 75 0 0,0
17.02.2020 01:00:00 7,6 -2,3 2,8 0,2 0,9 2,8 45 24 74 40 SSW 75 0 0,0
17.02.2020 00:00:00 7,0 -3,1 1,8 0,2 0,9 2,8 43 23 61 33 SSW 75 0 0,0
16.02.2020 23:00:00 6,8 -3,2 1,5 0,2 0,9 2,8 39 21 56 31 SSW 75 0 0,0
16.02.2020 22:00:00 5,6 -2,4 0,9 0,2 0,9 2,8 35 19 49 27 S 74 0 0,0
16.02.2020 21:00:00 5,3 -1,5 0,8 0,2 0,9 2,8 36 20 49 26 S 68 0 0,0
16.02.2020 20:00:00 5,7 -1,3 1,0 0,2 0,9 2,8 37 20 46 25 S 73 0 0,0
16.02.2020 19:00:00 5,8 -1,0 1,0 0,2 0,9 2,8 35 19 55 30 SSW 65 0 0,0
16.02.2020 18:00:00 5,5 -0,4 0,9 0,2 0,9 2,8 45 24 61 33 S 59 0 0,0
16.02.2020 17:00:00 4,7 -0,5 0,3 0,2 0,9 2,8 40 22 63 34 S 56 0 0,0
16.02.2020 16:00:00 4,0 -0,8 0,1 0,2 0,9 2,8 39 21 53 29 S 58 0 0,0
16.02.2020 15:00:00 4,0 -0,6 0,1 0,2 0,9 2,8 39 21 65 35 SSW 41 0 0,0
16.02.2020 14:00:00 2,4 -1,2 0,0 0,2 0,9 2,8 41 22 60 33 S 51 0 0,0
16.02.2020 13:00:00 3,1 -1,7 0,1 0,2 0,9 2,8 45 24 59 32 SSW 75 0 0,0
16.02.2020 12:00:00 2,7 -1,6 0,0 0,2 0,9 2,8 44 24 54 29 SSW 72 0 0,0
16.02.2020 11:00:00 2,6 -1,2 0,0 0,2 0,9 2,8 40 21 51 28 SSW 42 0 0,0
16.02.2020 10:00:00 0,9 -0,8 -0,1 0,2 0,9 2,8 35 19 44 24 S 35 0 0,0
16.02.2020 09:00:00 0,9 -0,8 -0,7 0,2 0,9 2,8 33 18 42 23 SSW 36 0 0,0
16.02.2020 08:00:00 -0,2 -0,8 -1,7 0,2 0,9 2,8 30 16 42 23 S 8 0 0,0

tt = temperature
td = dewpoint
tt 5cm = temperature 5cm
tt -5cm = temperature -5cm
tt -20cm = temperature -20cm
tt -100cm = temperature -100cm
ff = wind speed
fx = gusts
dd = wind direction
vv = visibility
sd = sunshine duration
rr = precipitation

Next stations